Central Islip, NY (11722)

2:27 PM EST on February 28, 2015 (GMT -0500)
Islip | Change Station
CLOSE
Current Station
Personal Weather Station
Location: Islip, NY
Elevation: 26 ft
Nearby Weather Stations

Elev 26 ft 40.74 °N, 73.20 °W | Updated 1 minute ago

Clear
Clear
29.7 °F
Feels Like 25 °F
N
4.0
Wind Variable Wind from NW
Gusts 0.0 mph

Today
High -- | Low -- °F
--% Chance of Precip.
Yesterday
High -- | Low -- °F
Precip. -- in
6:28 AM 5:42 PM
Waxing Gibbous, 79% visible
Pressure 30.74 in
Visibility 10.0 miles
Clouds Few 25000 ft
Windchill 25 °F
Dew Point 8 °F
Humidity 40%
Rainfall 0.00 in
Snow Depth Not available.
UV 4 out of 12
Pollen .40 out of 12
Air Quality Not available.
Flu Activity Not available.
METAR KISP 281856Z VRB06KT 10SM FEW250 M03/M15 A3073 RMK AO2 SLP409 T10331150

More Conditions Fewer Conditions

Pressure 30.74 in
Visibility 10.0 miles
Clouds Few 25000 ft
Windchill 25 °F
Dew Point 8 °F
Humidity 40%
Rainfall 0.00 in
Snow Depth Not available.
UV 4 out of 12
Pollen .40 out of 12
Air Quality Not available.
Flu Activity Not available.
METAR KISP 281856Z VRB06KT 10SM FEW250 M03/M15 A3073 RMK AO2 SLP409 T10331150

More Conditions Fewer Conditions

10-Day Weather Forecast

Almanac

Astronomy

Feb. 28, 2015 Rise Set
Actual Time
Civil Twilight
Nautical Twilight
Astronomical Twilight
Moon
Length of Visible Light
Length of Day
Tomorrow will be .
, % of the Moon is Illuminated

Today's Extremes

State Highs State Lows

Community

WunderPhotos

Upload Photos

1,801,122 photos uploaded!

WunderBlogs® & News

Nearby

Air Quality

  Air Quality AQ Index Pollutant
Not available.

Snow Depth

Station Depth Elevation

Earthquake Activity

City Distance Mag. Time & Date
Minimum magnitude displayed is 2.5.

Coastal Water Temperatures

Place Temperature

Nearby Weather Stations